sensor_id;sensor_type;location;lat;lon;timestamp;temperature;humidity
1181;DHT22;579;52.046;8.532;2023-03-31T00:00:38;12.10;1.00
1181;DHT22;579;52.046;8.532;2023-03-31T00:03:06;12.70;1.00
1181;DHT22;579;52.046;8.532;2023-03-31T00:05:35;12.60;1.00
1181;DHT22;579;52.046;8.532;2023-03-31T00:08:02;12.50;1.00
1181;DHT22;579;52.046;8.532;2023-03-31T00:10:29;12.30;1.00
1181;DHT22;579;52.046;8.532;2023-03-31T00:12:58;12.50;1.00
1181;DHT22;579;52.046;8.532;2023-03-31T00:15:25;12.60;1.00
1181;DHT22;579;52.046;8.532;2023-03-31T00:17:53;12.60;1.00
1181;DHT22;579;52.046;8.532;2023-03-31T00:24:10;12.60;1.00
1181;DHT22;579;52.046;8.532;2023-03-31T00:26:37;12.30;1.00
1181;DHT22;579;52.046;8.532;2023-03-31T00:29:06;12.30;1.00
1181;DHT22;579;52.046;8.532;2023-03-31T00:31:33;12.50;1.00
1181;DHT22;579;52.046;8.532;2023-03-31T00:34:00;12.40;1.00
1181;DHT22;579;52.046;8.532;2023-03-31T00:36:27;12.10;1.00
1181;DHT22;579;52.046;8.532;2023-03-31T00:38:53;12.20;1.00
1181;DHT22;579;52.046;8.532;2023-03-31T00:46:29;12.30;1.00
1181;DHT22;579;52.046;8.532;2023-03-31T00:48:57;12.40;1.00
1181;DHT22;579;52.046;8.532;2023-03-31T00:51:25;12.20;1.00
1181;DHT22;579;52.046;8.532;2023-03-31T00:53:56;12.40;1.00
1181;DHT22;579;52.046;8.532;2023-03-31T00:56:25;12.80;1.00
1181;DHT22;579;52.046;8.532;2023-03-31T00:58:55;12.60;1.00
1181;DHT22;579;52.046;8.532;2023-03-31T01:01:22;12.50;1.00
1181;DHT22;579;52.046;8.532;2023-03-31T01:06:57;12.50;1.00
1181;DHT22;579;52.046;8.532;2023-03-31T01:09:29;12.00;1.00
1181;DHT22;579;52.046;8.532;2023-03-31T01:12:00;11.80;1.00
1181;DHT22;579;52.046;8.532;2023-03-31T01:14:28;12.00;1.00
1181;DHT22;579;52.046;8.532;2023-03-31T01:16:55;12.10;1.00
1181;DHT22;579;52.046;8.532;2023-03-31T01:19:27;12.30;1.00
1181;DHT22;579;52.046;8.532;2023-03-31T01:29:15;11.90;1.00
1181;DHT22;579;52.046;8.532;2023-03-31T01:32:04;12.00;1.00
1181;DHT22;579;52.046;8.532;2023-03-31T01:35:12;11.90;1.00
1181;DHT22;579;52.046;8.532;2023-03-31T01:41:16;12.00;1.00
1181;DHT22;579;52.046;8.532;2023-03-31T01:43:58;11.80;1.00
1181;DHT22;579;52.046;8.532;2023-03-31T01:49:32;11.80;1.00
1181;DHT22;579;52.046;8.532;2023-03-31T01:52:03;11.80;1.00
1181;DHT22;579;52.046;8.532;2023-03-31T01:54:37;11.70;1.00
1181;DHT22;579;52.046;8.532;2023-03-31T01:57:11;11.70;1.00
1181;DHT22;579;52.046;8.532;2023-03-31T01:59:46;11.70;1.00
1181;DHT22;579;52.046;8.532;2023-03-31T02:02:18;11.50;1.00
1181;DHT22;579;52.046;8.532;2023-03-31T02:04:51;11.80;1.00
1181;DHT22;579;52.046;8.532;2023-03-31T02:12:18;11.80;1.00
1181;DHT22;579;52.046;8.532;2023-03-31T02:14:48;11.90;1.00
1181;DHT22;579;52.046;8.532;2023-03-31T02:17:19;11.90;1.00
1181;DHT22;579;52.046;8.532;2023-03-31T02:19:50;11.80;1.00
1181;DHT22;579;52.046;8.532;2023-03-31T02:22:19;11.70;1.00
1181;DHT22;579;52.046;8.532;2023-03-31T02:24:48;11.80;1.00
1181;DHT22;579;52.046;8.532;2023-03-31T02:27:20;12.00;1.00
1181;DHT22;579;52.046;8.532;2023-03-31T02:34:53;11.80;1.00
1181;DHT22;579;52.046;8.532;2023-03-31T02:37:19;11.70;1.00
1181;DHT22;579;52.046;8.532;2023-03-31T02:39:48;11.70;1.00
1181;DHT22;579;52.046;8.532;2023-03-31T02:42:16;11.70;1.00
1181;DHT22;579;52.046;8.532;2023-03-31T02:44:43;12.00;1.00
1181;DHT22;579;52.046;8.532;2023-03-31T02:47:11;12.00;1.00
1181;DHT22;579;52.046;8.532;2023-03-31T02:49:40;12.10;1.00
1181;DHT22;579;52.046;8.532;2023-03-31T02:57:32;11.60;1.00
1181;DHT22;579;52.046;8.532;2023-03-31T03:00:26;11.90;1.00
1181;DHT22;579;52.046;8.532;2023-03-31T03:03:13;11.80;1.00
1181;DHT22;579;52.046;8.532;2023-03-31T03:05:52;11.90;1.00
1181;DHT22;579;52.046;8.532;2023-03-31T03:08:28;11.90;1.00
1181;DHT22;579;52.046;8.532;2023-03-31T03:11:06;11.80;1.00
1181;DHT22;579;52.046;8.532;2023-03-31T03:13:40;11.70;1.00
1181;DHT22;579;52.046;8.532;2023-03-31T03:21:15;11.80;1.00
1181;DHT22;579;52.046;8.532;2023-03-31T03:23:41;11.60;1.00
1181;DHT22;579;52.046;8.532;2023-03-31T03:26:07;11.40;1.00
1181;DHT22;579;52.046;8.532;2023-03-31T03:28:34;11.40;1.00
1181;DHT22;579;52.046;8.532;2023-03-31T03:31:01;11.40;1.00
1181;DHT22;579;52.046;8.532;2023-03-31T03:33:27;11.30;1.00
1181;DHT22;579;52.046;8.532;2023-03-31T03:35:53;11.80;1.00
1181;DHT22;579;52.046;8.532;2023-03-31T03:40:57;11.80;1.00
1181;DHT22;579;52.046;8.532;2023-03-31T03:43:24;11.60;1.00
1181;DHT22;579;52.046;8.532;2023-03-31T03:45:50;11.50;1.00
1181;DHT22;579;52.046;8.532;2023-03-31T03:48:16;11.50;1.00
1181;DHT22;579;52.046;8.532;2023-03-31T03:50:44;11.50;1.00
1181;DHT22;579;52.046;8.532;2023-03-31T03:53:10;11.50;1.00
1181;DHT22;579;52.046;8.532;2023-03-31T03:55:36;11.60;1.00
1181;DHT22;579;52.046;8.532;2023-03-31T04:00:55;11.50;1.00
1181;DHT22;579;52.046;8.532;2023-03-31T04:03:21;11.40;1.00
1181;DHT22;579;52.046;8.532;2023-03-31T04:05:48;11.50;1.00
1181;DHT22;579;52.046;8.532;2023-03-31T04:08:15;11.50;1.00
1181;DHT22;579;52.046;8.532;2023-03-31T04:10:43;11.50;1.00
1181;DHT22;579;52.046;8.532;2023-03-31T04:13:10;11.60;1.00
1181;DHT22;579;52.046;8.532;2023-03-31T04:15:37;11.60;1.00
1181;DHT22;579;52.046;8.532;2023-03-31T04:22:42;12.10;1.00
1181;DHT22;579;52.046;8.532;2023-03-31T04:25:12;12.40;1.00
1181;DHT22;579;52.046;8.532;2023-03-31T04:27:41;12.00;1.00
1181;DHT22;579;52.046;8.532;2023-03-31T04:30:12;11.90;1.00
1181;DHT22;579;52.046;8.532;2023-03-31T04:32:47;12.10;1.00
1181;DHT22;579;52.046;8.532;2023-03-31T04:35:15;11.90;1.00
1181;DHT22;579;52.046;8.532;2023-03-31T04:37:43;11.80;1.00
1181;DHT22;579;52.046;8.532;2023-03-31T04:44:42;12.20;1.00
1181;DHT22;579;52.046;8.532;2023-03-31T04:47:08;12.00;1.00
1181;DHT22;579;52.046;8.532;2023-03-31T04:49:35;12.30;1.00
1181;DHT22;579;52.046;8.532;2023-03-31T04:52:01;12.60;1.00
1181;DHT22;579;52.046;8.532;2023-03-31T04:54:27;12.40;1.00
1181;DHT22;579;52.046;8.532;2023-03-31T04:56:53;12.60;1.00
1181;DHT22;579;52.046;8.532;2023-03-31T04:59:20;12.20;1.00
1181;DHT22;579;52.046;8.532;2023-03-31T05:06:43;12.10;1.00
1181;DHT22;579;52.046;8.532;2023-03-31T05:09:09;12.10;1.00
1181;DHT22;579;52.046;8.532;2023-03-31T05:11:35;12.00;1.00
1181;DHT22;579;52.046;8.532;2023-03-31T05:14:02;11.70;1.00
1181;DHT22;579;52.046;8.532;2023-03-31T05:16:28;11.90;1.00
1181;DHT22;579;52.046;8.532;2023-03-31T05:18:55;11.90;1.00
1181;DHT22;579;52.046;8.532;2023-03-31T05:21:21;11.90;1.00
1181;DHT22;579;52.046;8.532;2023-03-31T05:26:42;12.50;1.00
1181;DHT22;579;52.046;8.532;2023-03-31T05:29:12;12.50;1.00
1181;DHT22;579;52.046;8.532;2023-03-31T05:31:41;12.00;1.00
1181;DHT22;579;52.046;8.532;2023-03-31T05:34:07;11.80;1.00
1181;DHT22;579;52.046;8.532;2023-03-31T05:36:33;11.90;1.00
1181;DHT22;579;52.046;8.532;2023-03-31T05:39:00;12.00;1.00
1181;DHT22;579;52.046;8.532;2023-03-31T05:41:26;12.10;1.00
1181;DHT22;579;52.046;8.532;2023-03-31T05:47:41;12.10;1.00
1181;DHT22;579;52.046;8.532;2023-03-31T05:50:08;12.10;1.00
1181;DHT22;579;52.046;8.532;2023-03-31T05:52:35;12.10;1.00
1181;DHT22;579;52.046;8.532;2023-03-31T05:55:02;12.20;1.00
1181;DHT22;579;52.046;8.532;2023-03-31T05:57:28;12.50;1.00
1181;DHT22;579;52.046;8.532;2023-03-31T05:59:54;12.20;1.00
1181;DHT22;579;52.046;8.532;2023-03-31T06:02:21;12.10;1.00
1181;DHT22;579;52.046;8.532;2023-03-31T06:08:44;12.80;1.00
1181;DHT22;579;52.046;8.532;2023-03-31T06:11:13;12.50;1.00
1181;DHT22;579;52.046;8.532;2023-03-31T06:13:41;12.20;1.00
1181;DHT22;579;52.046;8.532;2023-03-31T06:16:09;12.00;1.00
1181;DHT22;579;52.046;8.532;2023-03-31T06:18:37;12.00;1.00
1181;DHT22;579;52.046;8.532;2023-03-31T06:21:04;11.90;1.00
1181;DHT22;579;52.046;8.532;2023-03-31T06:23:31;12.50;1.00
1181;DHT22;579;52.046;8.532;2023-03-31T06:31:02;12.50;1.00
1181;DHT22;579;52.046;8.532;2023-03-31T06:33:28;12.60;1.00
1181;DHT22;579;52.046;8.532;2023-03-31T06:35:55;12.60;1.00
1181;DHT22;579;52.046;8.532;2023-03-31T06:38:22;12.60;1.00
1181;DHT22;579;52.046;8.532;2023-03-31T06:40:48;12.50;1.00
1181;DHT22;579;52.046;8.532;2023-03-31T06:43:14;12.50;1.00
1181;DHT22;579;52.046;8.532;2023-03-31T06:45:40;12.50;1.00
1181;DHT22;579;52.046;8.532;2023-03-31T06:51:43;12.60;1.00
1181;DHT22;579;52.046;8.532;2023-03-31T06:54:09;13.10;1.00
1181;DHT22;579;52.046;8.532;2023-03-31T06:56:35;12.80;1.00
1181;DHT22;579;52.046;8.532;2023-03-31T06:59:01;12.80;1.00
1181;DHT22;579;52.046;8.532;2023-03-31T07:01:28;12.50;1.00
1181;DHT22;579;52.046;8.532;2023-03-31T07:03:55;12.70;1.00
1181;DHT22;579;52.046;8.532;2023-03-31T07:06:22;12.90;1.00
1181;DHT22;579;52.046;8.532;2023-03-31T07:11:41;12.60;1.00
1181;DHT22;579;52.046;8.532;2023-03-31T07:14:07;12.00;1.00
1181;DHT22;579;52.046;8.532;2023-03-31T07:16:33;11.70;1.00
1181;DHT22;579;52.046;8.532;2023-03-31T07:19:00;11.80;1.00
1181;DHT22;579;52.046;8.532;2023-03-31T07:21:28;11.90;1.00
1181;DHT22;579;52.046;8.532;2023-03-31T07:23:54;11.90;1.00
1181;DHT22;579;52.046;8.532;2023-03-31T07:26:21;12.00;1.00
1181;DHT22;579;52.046;8.532;2023-03-31T07:31:28;11.90;1.00
1181;DHT22;579;52.046;8.532;2023-03-31T07:33:55;12.10;1.00
1181;DHT22;579;52.046;8.532;2023-03-31T07:36:21;12.30;1.00
1181;DHT22;579;52.046;8.532;2023-03-31T07:38:47;12.50;1.00
1181;DHT22;579;52.046;8.532;2023-03-31T07:41:16;12.80;1.00
1181;DHT22;579;52.046;8.532;2023-03-31T07:43:44;12.90;1.00
1181;DHT22;579;52.046;8.532;2023-03-31T07:46:16;12.80;1.00
1181;DHT22;579;52.046;8.532;2023-03-31T07:53:48;13.10;1.00
1181;DHT22;579;52.046;8.532;2023-03-31T07:56:17;13.30;1.00
1181;DHT22;579;52.046;8.532;2023-03-31T07:58:44;13.40;1.00
1181;DHT22;579;52.046;8.532;2023-03-31T08:01:13;13.30;1.00
1181;DHT22;579;52.046;8.532;2023-03-31T08:03:41;13.00;1.00
1181;DHT22;579;52.046;8.532;2023-03-31T08:06:07;13.10;1.00
1181;DHT22;579;52.046;8.532;2023-03-31T08:08:34;13.00;1.00
1181;DHT22;579;52.046;8.532;2023-03-31T08:16:06;12.80;1.00
1181;DHT22;579;52.046;8.532;2023-03-31T08:18:33;12.40;1.00
1181;DHT22;579;52.046;8.532;2023-03-31T08:21:00;12.30;1.00
1181;DHT22;579;52.046;8.532;2023-03-31T08:23:26;13.40;1.00
1181;DHT22;579;52.046;8.532;2023-03-31T08:25:52;12.30;1.00
1181;DHT22;579;52.046;8.532;2023-03-31T08:28:19;12.10;1.00
1181;DHT22;579;52.046;8.532;2023-03-31T08:30:46;12.00;1.00
1181;DHT22;579;52.046;8.532;2023-03-31T08:37:12;12.10;1.00
1181;DHT22;579;52.046;8.532;2023-03-31T08:39:38;11.70;1.00
1181;DHT22;579;52.046;8.532;2023-03-31T08:42:10;11.80;1.00
1181;DHT22;579;52.046;8.532;2023-03-31T08:44:41;11.90;1.00
1181;DHT22;579;52.046;8.532;2023-03-31T08:47:14;12.10;1.00
1181;DHT22;579;52.046;8.532;2023-03-31T08:49:44;12.00;1.00
1181;DHT22;579;52.046;8.532;2023-03-31T08:52:18;11.90;1.00
1181;DHT22;579;52.046;8.532;2023-03-31T08:59:53;12.00;1.00
1181;DHT22;579;52.046;8.532;2023-03-31T09:02:29;11.90;1.00
1181;DHT22;579;52.046;8.532;2023-03-31T09:05:21;11.90;1.00
1181;DHT22;579;52.046;8.532;2023-03-31T09:08:15;11.70;1.00
1181;DHT22;579;52.046;8.532;2023-03-31T09:10:53;11.80;1.00
1181;DHT22;579;52.046;8.532;2023-03-31T09:13:50;11.90;1.00
1181;DHT22;579;52.046;8.532;2023-03-31T09:21:40;11.10;1.00
1181;DHT22;579;52.046;8.532;2023-03-31T09:24:12;11.10;1.00
1181;DHT22;579;52.046;8.532;2023-03-31T09:26:43;11.00;1.00
1181;DHT22;579;52.046;8.532;2023-03-31T09:29:15;11.10;1.00
1181;DHT22;579;52.046;8.532;2023-03-31T09:31:44;11.20;1.00
1181;DHT22;579;52.046;8.532;2023-03-31T09:34:14;11.40;1.00
1181;DHT22;579;52.046;8.532;2023-03-31T09:39:20;11.40;1.00
1181;DHT22;579;52.046;8.532;2023-03-31T09:41:49;11.40;1.00
1181;DHT22;579;52.046;8.532;2023-03-31T09:44:24;11.40;1.00
1181;DHT22;579;52.046;8.532;2023-03-31T09:46:52;11.30;1.00
1181;DHT22;579;52.046;8.532;2023-03-31T09:49:20;11.50;1.00
1181;DHT22;579;52.046;8.532;2023-03-31T09:51:51;11.80;1.00
1181;DHT22;579;52.046;8.532;2023-03-31T09:54:29;11.70;1.00
1181;DHT22;579;52.046;8.532;2023-03-31T09:57:23;11.40;1.00
1181;DHT22;579;52.046;8.532;2023-03-31T09:59:51;11.30;1.00
1181;DHT22;579;52.046;8.532;2023-03-31T10:02:36;11.60;1.00
1181;DHT22;579;52.046;8.532;2023-03-31T10:05:06;11.90;1.00
1181;DHT22;579;52.046;8.532;2023-03-31T10:07:44;11.60;1.00
1181;DHT22;579;52.046;8.532;2023-03-31T10:10:21;11.60;1.00
1181;DHT22;579;52.046;8.532;2023-03-31T10:12:53;11.60;1.00
1181;DHT22;579;52.046;8.532;2023-03-31T10:20:35;11.50;1.00
1181;DHT22;579;52.046;8.532;2023-03-31T10:23:11;11.80;1.00
1181;DHT22;579;52.046;8.532;2023-03-31T10:25:41;12.30;1.00
1181;DHT22;579;52.046;8.532;2023-03-31T10:28:09;12.20;1.00
1181;DHT22;579;52.046;8.532;2023-03-31T10:30:36;12.00;1.00
1181;DHT22;579;52.046;8.532;2023-03-31T10:33:05;12.70;1.00
1181;DHT22;579;52.046;8.532;2023-03-31T10:35:37;12.30;1.00
1181;DHT22;579;52.046;8.532;2023-03-31T10:43:14;12.50;1.00
1181;DHT22;579;52.046;8.532;2023-03-31T10:45:43;12.80;1.00
1181;DHT22;579;52.046;8.532;2023-03-31T10:48:23;12.80;1.00
1181;DHT22;579;52.046;8.532;2023-03-31T10:50:51;13.20;1.00
1181;DHT22;579;52.046;8.532;2023-03-31T10:53:18;13.20;1.00
1181;DHT22;579;52.046;8.532;2023-03-31T10:58:58;13.10;1.00
1181;DHT22;579;52.046;8.532;2023-03-31T11:05:57;13.30;1.00
1181;DHT22;579;52.046;8.532;2023-03-31T11:08:40;13.40;1.00
1181;DHT22;579;52.046;8.532;2023-03-31T11:11:31;13.60;1.00
1181;DHT22;579;52.046;8.532;2023-03-31T11:14:13;13.30;1.00
1181;DHT22;579;52.046;8.532;2023-03-31T11:16:47;12.90;1.00
1181;DHT22;579;52.046;8.532;2023-03-31T11:24:38;12.70;1.00
1181;DHT22;579;52.046;8.532;2023-03-31T11:27:26;13.20;1.00
1181;DHT22;579;52.046;8.532;2023-03-31T11:30:05;13.50;1.00
1181;DHT22;579;52.046;8.532;2023-03-31T11:32:46;13.50;1.00
1181;DHT22;579;52.046;8.532;2023-03-31T11:35:29;13.60;1.00
1181;DHT22;579;52.046;8.532;2023-03-31T11:38:27;13.80;1.00
1181;DHT22;579;52.046;8.532;2023-03-31T11:43:46;13.80;1.00
1181;DHT22;579;52.046;8.532;2023-03-31T11:46:17;13.90;1.00
1181;DHT22;579;52.046;8.532;2023-03-31T11:48:50;13.80;1.00
1181;DHT22;579;52.046;8.532;2023-03-31T11:51:22;13.60;1.00
1181;DHT22;579;52.046;8.532;2023-03-31T11:53:52;13.90;1.00
1181;DHT22;579;52.046;8.532;2023-03-31T11:56:21;13.90;1.00
1181;DHT22;579;52.046;8.532;2023-03-31T11:58:52;14.00;1.00
1181;DHT22;579;52.046;8.532;2023-03-31T12:06:27;13.80;1.00
1181;DHT22;579;52.046;8.532;2023-03-31T12:09:04;13.40;1.00
1181;DHT22;579;52.046;8.532;2023-03-31T12:11:41;13.60;1.00
1181;DHT22;579;52.046;8.532;2023-03-31T12:14:26;13.50;1.00
1181;DHT22;579;52.046;8.532;2023-03-31T12:16:59;13.20;1.00
1181;DHT22;579;52.046;8.532;2023-03-31T12:19:33;13.30;1.00
1181;DHT22;579;52.046;8.532;2023-03-31T12:22:09;13.20;1.00
1181;DHT22;579;52.046;8.532;2023-03-31T12:29:56;14.10;1.00
1181;DHT22;579;52.046;8.532;2023-03-31T12:32:27;14.50;1.00
1181;DHT22;579;52.046;8.532;2023-03-31T12:35:00;14.40;1.00
1181;DHT22;579;52.046;8.532;2023-03-31T12:37:52;14.50;1.00
1181;DHT22;579;52.046;8.532;2023-03-31T12:40:33;14.80;1.00
1181;DHT22;579;52.046;8.532;2023-03-31T12:43:19;15.40;1.00
1181;DHT22;579;52.046;8.532;2023-03-31T12:51:14;16.40;1.00
1181;DHT22;579;52.046;8.532;2023-03-31T12:53:59;16.10;1.00
1181;DHT22;579;52.046;8.532;2023-03-31T12:57:02;16.60;1.00
1181;DHT22;579;52.046;8.532;2023-03-31T12:59:32;16.00;1.00
1181;DHT22;579;52.046;8.532;2023-03-31T13:02:18;15.90;1.00
1181;DHT22;579;52.046;8.532;2023-03-31T13:04:48;16.30;1.00
1181;DHT22;579;52.046;8.532;2023-03-31T13:12:16;16.70;1.00
1181;DHT22;579;52.046;8.532;2023-03-31T13:14:45;15.80;1.00
1181;DHT22;579;52.046;8.532;2023-03-31T13:17:21;15.60;1.00
1181;DHT22;579;52.046;8.532;2023-03-31T13:19:49;14.70;1.00
1181;DHT22;579;52.046;8.532;2023-03-31T13:22:31;14.10;1.00
1181;DHT22;579;52.046;8.532;2023-03-31T13:25:36;13.70;1.00
1181;DHT22;579;52.046;8.532;2023-03-31T13:33:30;13.00;1.00
1181;DHT22;579;52.046;8.532;2023-03-31T13:39:44;12.50;1.00
1181;DHT22;579;52.046;8.532;2023-03-31T13:42:51;12.50;1.00
1181;DHT22;579;52.046;8.532;2023-03-31T13:45:43;12.70;1.00
1181;DHT22;579;52.046;8.532;2023-03-31T13:51:27;13.50;1.00
1181;DHT22;579;52.046;8.532;2023-03-31T13:54:18;13.80;1.00
1181;DHT22;579;52.046;8.532;2023-03-31T14:00:31;14.00;1.00
1181;DHT22;579;52.046;8.532;2023-03-31T14:03:16;13.60;1.00
1181;DHT22;579;52.046;8.532;2023-03-31T14:05:53;13.80;1.00
1181;DHT22;579;52.046;8.532;2023-03-31T14:11:41;14.30;1.00
1181;DHT22;579;52.046;8.532;2023-03-31T14:14:11;14.60;1.00
1181;DHT22;579;52.046;8.532;2023-03-31T14:16:44;14.70;1.00
1181;DHT22;579;52.046;8.532;2023-03-31T14:19:36;14.70;1.00
1181;DHT22;579;52.046;8.532;2023-03-31T14:22:18;14.90;1.00
1181;DHT22;579;52.046;8.532;2023-03-31T14:24:54;14.90;1.00
1181;DHT22;579;52.046;8.532;2023-03-31T14:30:15;14.90;1.00
1181;DHT22;579;52.046;8.532;2023-03-31T14:33:02;14.80;1.00
1181;DHT22;579;52.046;8.532;2023-03-31T14:35:36;14.70;1.00
1181;DHT22;579;52.046;8.532;2023-03-31T14:38:12;14.60;1.00
1181;DHT22;579;52.046;8.532;2023-03-31T14:40:44;14.80;1.00
1181;DHT22;579;52.046;8.532;2023-03-31T14:43:17;14.30;1.00
1181;DHT22;579;52.046;8.532;2023-03-31T14:45:46;14.20;1.00
1181;DHT22;579;52.046;8.532;2023-03-31T14:52:47;14.40;1.00
1181;DHT22;579;52.046;8.532;2023-03-31T14:55:16;14.00;1.00
1181;DHT22;579;52.046;8.532;2023-03-31T14:57:46;14.00;1.00
1181;DHT22;579;52.046;8.532;2023-03-31T15:00:17;14.40;1.00
1181;DHT22;579;52.046;8.532;2023-03-31T15:02:46;14.20;1.00
1181;DHT22;579;52.046;8.532;2023-03-31T15:05:21;14.40;1.00
1181;DHT22;579;52.046;8.532;2023-03-31T15:07:56;14.30;1.00
1181;DHT22;579;52.046;8.532;2023-03-31T15:15:28;14.30;1.00
1181;DHT22;579;52.046;8.532;2023-03-31T15:18:02;14.00;1.00
1181;DHT22;579;52.046;8.532;2023-03-31T15:20:30;13.90;1.00
1181;DHT22;579;52.046;8.532;2023-03-31T15:23:02;13.70;1.00
1181;DHT22;579;52.046;8.532;2023-03-31T15:25:34;14.00;1.00
1181;DHT22;579;52.046;8.532;2023-03-31T15:28:06;14.30;1.00
1181;DHT22;579;52.046;8.532;2023-03-31T15:30:36;14.40;1.00
1181;DHT22;579;52.046;8.532;2023-03-31T15:38:10;14.60;1.00
1181;DHT22;579;52.046;8.532;2023-03-31T15:40:41;15.20;1.00
1181;DHT22;579;52.046;8.532;2023-03-31T15:43:13;15.10;1.00
1181;DHT22;579;52.046;8.532;2023-03-31T15:45:46;14.70;1.00
1181;DHT22;579;52.046;8.532;2023-03-31T15:48:21;14.70;1.00
1181;DHT22;579;52.046;8.532;2023-03-31T15:50:49;14.70;1.00
1181;DHT22;579;52.046;8.532;2023-03-31T15:56:23;14.60;1.00
1181;DHT22;579;52.046;8.532;2023-03-31T15:58:56;14.70;1.00
1181;DHT22;579;52.046;8.532;2023-03-31T16:01:26;14.80;1.00
1181;DHT22;579;52.046;8.532;2023-03-31T16:03:55;15.20;1.00
1181;DHT22;579;52.046;8.532;2023-03-31T16:06:30;15.10;1.00
1181;DHT22;579;52.046;8.532;2023-03-31T16:09:03;15.00;1.00
1181;DHT22;579;52.046;8.532;2023-03-31T16:17:47;15.30;1.00
1181;DHT22;579;52.046;8.532;2023-03-31T16:20:17;15.00;1.00
1181;DHT22;579;52.046;8.532;2023-03-31T16:22:48;14.70;1.00
1181;DHT22;579;52.046;8.532;2023-03-31T16:25:19;14.40;1.00
1181;DHT22;579;52.046;8.532;2023-03-31T16:27:50;14.60;1.00
1181;DHT22;579;52.046;8.532;2023-03-31T16:30:20;14.40;1.00
1181;DHT22;579;52.046;8.532;2023-03-31T16:32:59;14.50;1.00
1181;DHT22;579;52.046;8.532;2023-03-31T16:39:44;14.40;1.00
1181;DHT22;579;52.046;8.532;2023-03-31T16:42:10;14.50;1.00
1181;DHT22;579;52.046;8.532;2023-03-31T16:44:36;14.90;1.00
1181;DHT22;579;52.046;8.532;2023-03-31T16:47:03;14.90;1.00
1181;DHT22;579;52.046;8.532;2023-03-31T16:49:29;15.10;1.00
1181;DHT22;579;52.046;8.532;2023-03-31T16:51:55;15.50;1.00
1181;DHT22;579;52.046;8.532;2023-03-31T16:54:22;15.60;1.00
1181;DHT22;579;52.046;8.532;2023-03-31T16:59:43;15.60;1.00
1181;DHT22;579;52.046;8.532;2023-03-31T17:02:10;15.20;1.00
1181;DHT22;579;52.046;8.532;2023-03-31T17:04:36;15.00;1.00
1181;DHT22;579;52.046;8.532;2023-03-31T17:07:03;14.80;1.00
1181;DHT22;579;52.046;8.532;2023-03-31T17:09:29;14.80;1.00
1181;DHT22;579;52.046;8.532;2023-03-31T17:11:55;14.60;1.00
1181;DHT22;579;52.046;8.532;2023-03-31T17:14:21;14.30;1.00
1181;DHT22;579;52.046;8.532;2023-03-31T17:21:53;14.30;1.00
1181;DHT22;579;52.046;8.532;2023-03-31T17:24:19;13.70;1.00
1181;DHT22;579;52.046;8.532;2023-03-31T17:26:46;13.60;1.00
1181;DHT22;579;52.046;8.532;2023-03-31T17:29:13;13.30;1.00
1181;DHT22;579;52.046;8.532;2023-03-31T17:31:39;12.90;1.00
1181;DHT22;579;52.046;8.532;2023-03-31T17:34:05;12.80;1.00
1181;DHT22;579;52.046;8.532;2023-03-31T17:36:31;12.50;1.00
1181;DHT22;579;52.046;8.532;2023-03-31T17:42:51;13.10;1.00
1181;DHT22;579;52.046;8.532;2023-03-31T17:45:17;13.00;1.00
1181;DHT22;579;52.046;8.532;2023-03-31T17:47:44;13.10;1.00
1181;DHT22;579;52.046;8.532;2023-03-31T17:50:11;13.00;1.00
1181;DHT22;579;52.046;8.532;2023-03-31T17:52:37;12.80;1.00
1181;DHT22;579;52.046;8.532;2023-03-31T17:55:04;12.80;1.00
1181;DHT22;579;52.046;8.532;2023-03-31T17:57:31;12.80;1.00
1181;DHT22;579;52.046;8.532;2023-03-31T18:04:44;12.50;1.00
1181;DHT22;579;52.046;8.532;2023-03-31T18:07:10;12.30;1.00
1181;DHT22;579;52.046;8.532;2023-03-31T18:09:37;12.20;1.00
1181;DHT22;579;52.046;8.532;2023-03-31T18:12:04;11.70;1.00
1181;DHT22;579;52.046;8.532;2023-03-31T18:14:30;11.80;1.00
1181;DHT22;579;52.046;8.532;2023-03-31T18:16:57;11.80;1.00
1181;DHT22;579;52.046;8.532;2023-03-31T18:19:23;11.80;1.00
1181;DHT22;579;52.046;8.532;2023-03-31T18:24:31;11.90;1.00
1181;DHT22;579;52.046;8.532;2023-03-31T18:26:59;12.10;1.00
1181;DHT22;579;52.046;8.532;2023-03-31T18:29:25;12.00;1.00
1181;DHT22;579;52.046;8.532;2023-03-31T18:31:52;11.80;1.00
1181;DHT22;579;52.046;8.532;2023-03-31T18:34:18;11.80;1.00
1181;DHT22;579;52.046;8.532;2023-03-31T18:36:44;12.20;1.00
1181;DHT22;579;52.046;8.532;2023-03-31T18:39:11;12.00;1.00
1181;DHT22;579;52.046;8.532;2023-03-31T18:44:21;11.70;1.00
1181;DHT22;579;52.046;8.532;2023-03-31T18:46:47;11.70;1.00
1181;DHT22;579;52.046;8.532;2023-03-31T18:49:14;11.60;1.00
1181;DHT22;579;52.046;8.532;2023-03-31T18:51:40;11.90;1.00
1181;DHT22;579;52.046;8.532;2023-03-31T18:54:07;11.90;1.00
1181;DHT22;579;52.046;8.532;2023-03-31T18:56:33;11.90;1.00
1181;DHT22;579;52.046;8.532;2023-03-31T18:58:59;11.90;1.00
1181;DHT22;579;52.046;8.532;2023-03-31T19:06:23;12.10;1.00
1181;DHT22;579;52.046;8.532;2023-03-31T19:08:49;11.90;1.00
1181;DHT22;579;52.046;8.532;2023-03-31T19:11:16;11.90;1.00
1181;DHT22;579;52.046;8.532;2023-03-31T19:13:42;11.90;1.00
1181;DHT22;579;52.046;8.532;2023-03-31T19:16:09;12.00;1.00
1181;DHT22;579;52.046;8.532;2023-03-31T19:18:35;11.70;1.00
1181;DHT22;579;52.046;8.532;2023-03-31T19:21:02;11.50;1.00
1181;DHT22;579;52.046;8.532;2023-03-31T19:23:29;11.80;1.00
1181;DHT22;579;52.046;8.532;2023-03-31T19:30:46;11.70;1.00
1181;DHT22;579;52.046;8.532;2023-03-31T19:33:13;11.80;1.00
1181;DHT22;579;52.046;8.532;2023-03-31T19:35:40;12.00;1.00
1181;DHT22;579;52.046;8.532;2023-03-31T19:38:07;12.20;1.00
1181;DHT22;579;52.046;8.532;2023-03-31T19:40:35;11.90;1.00
1181;DHT22;579;52.046;8.532;2023-03-31T19:43:01;12.40;1.00
1181;DHT22;579;52.046;8.532;2023-03-31T19:45:28;12.20;1.00
1181;DHT22;579;52.046;8.532;2023-03-31T19:50:30;12.40;1.00
1181;DHT22;579;52.046;8.532;2023-03-31T19:52:56;12.10;1.00
1181;DHT22;579;52.046;8.532;2023-03-31T19:55:22;12.00;1.00
1181;DHT22;579;52.046;8.532;2023-03-31T19:57:48;12.10;1.00
1181;DHT22;579;52.046;8.532;2023-03-31T20:00:15;12.30;1.00
1181;DHT22;579;52.046;8.532;2023-03-31T20:02:43;11.90;1.00
1181;DHT22;579;52.046;8.532;2023-03-31T20:05:10;11.70;1.00
1181;DHT22;579;52.046;8.532;2023-03-31T20:10:17;11.70;1.00
1181;DHT22;579;52.046;8.532;2023-03-31T20:12:44;11.70;1.00
1181;DHT22;579;52.046;8.532;2023-03-31T20:15:11;11.60;1.00
1181;DHT22;579;52.046;8.532;2023-03-31T20:17:38;11.40;1.00
1181;DHT22;579;52.046;8.532;2023-03-31T20:20:05;11.30;1.00
1181;DHT22;579;52.046;8.532;2023-03-31T20:22:33;11.20;1.00
1181;DHT22;579;52.046;8.532;2023-03-31T20:24:59;11.40;1.00
1181;DHT22;579;52.046;8.532;2023-03-31T20:30:42;11.60;1.00
1181;DHT22;579;52.046;8.532;2023-03-31T20:33:08;11.70;1.00
1181;DHT22;579;52.046;8.532;2023-03-31T20:35:34;11.70;1.00
1181;DHT22;579;52.046;8.532;2023-03-31T20:38:01;11.80;1.00
1181;DHT22;579;52.046;8.532;2023-03-31T20:40:28;12.10;1.00
1181;DHT22;579;52.046;8.532;2023-03-31T20:42:54;12.00;1.00
1181;DHT22;579;52.046;8.532;2023-03-31T20:45:20;11.90;1.00
1181;DHT22;579;52.046;8.532;2023-03-31T20:51:50;11.70;1.00
1181;DHT22;579;52.046;8.532;2023-03-31T20:54:16;11.50;1.00
1181;DHT22;579;52.046;8.532;2023-03-31T20:56:42;11.60;1.00
1181;DHT22;579;52.046;8.532;2023-03-31T20:59:10;11.20;1.00
1181;DHT22;579;52.046;8.532;2023-03-31T21:01:38;11.00;1.00
1181;DHT22;579;52.046;8.532;2023-03-31T21:04:06;11.10;1.00
1181;DHT22;579;52.046;8.532;2023-03-31T21:06:38;11.40;1.00
1181;DHT22;579;52.046;8.532;2023-03-31T21:13:47;11.40;1.00
1181;DHT22;579;52.046;8.532;2023-03-31T21:16:14;11.60;1.00
1181;DHT22;579;52.046;8.532;2023-03-31T21:18:41;11.80;1.00